sensor_id;sensor_type;location;lat;lon;timestamp;temperature;humidity
55026;DHT22;40925;45.666;18.994;2023-09-30T00:00:52;410.30;2355.20
55026;DHT22;40925;45.666;18.994;2023-09-30T00:08:10;435.60;2355.20
55026;DHT22;40925;45.666;18.994;2023-09-30T00:10:36;435.40;2355.20
55026;DHT22;40925;45.666;18.994;2023-09-30T00:13:02;435.50;2355.20
55026;DHT22;40925;45.666;18.994;2023-09-30T00:15:28;435.50;2355.20
55026;DHT22;40925;45.666;18.994;2023-09-30T00:17:53;435.50;2355.20
55026;DHT22;40925;45.666;18.994;2023-09-30T00:20:19;435.60;2355.20
55026;DHT22;40925;45.666;18.994;2023-09-30T00:26:07;435.40;2355.20
55026;DHT22;40925;45.666;18.994;2023-09-30T00:28:33;435.50;2355.20
55026;DHT22;40925;45.666;18.994;2023-09-30T00:30:59;435.40;2355.20
55026;DHT22;40925;45.666;18.994;2023-09-30T00:33:25;435.50;2355.20
55026;DHT22;40925;45.666;18.994;2023-09-30T00:35:50;435.40;2355.20
55026;DHT22;40925;45.666;18.994;2023-09-30T00:41:21;435.40;2355.20
55026;DHT22;40925;45.666;18.994;2023-09-30T00:43:46;435.40;2355.20
55026;DHT22;40925;45.666;18.994;2023-09-30T00:46:31;435.40;2355.20
55026;DHT22;40925;45.666;18.994;2023-09-30T00:48:58;435.40;2355.20
55026;DHT22;40925;45.666;18.994;2023-09-30T00:51:25;435.30;2355.20
55026;DHT22;40925;45.666;18.994;2023-09-30T00:53:52;435.30;2355.20
55026;DHT22;40925;45.666;18.994;2023-09-30T00:56:25;435.30;2355.20
55026;DHT22;40925;45.666;18.994;2023-09-30T00:58:51;435.30;2355.20
55026;DHT22;40925;45.666;18.994;2023-09-30T01:01:19;435.30;2355.20
55026;DHT22;40925;45.666;18.994;2023-09-30T01:03:48;435.30;2355.20
55026;DHT22;40925;45.666;18.994;2023-09-30T01:06:14;435.30;2355.20
55026;DHT22;40925;45.666;18.994;2023-09-30T01:08:40;435.30;2355.20
55026;DHT22;40925;45.666;18.994;2023-09-30T01:11:07;435.30;2355.20
55026;DHT22;40925;45.666;18.994;2023-09-30T01:13:34;435.40;2355.20
55026;DHT22;40925;45.666;18.994;2023-09-30T01:16:08;435.20;2355.20
55026;DHT22;40925;45.666;18.994;2023-09-30T01:18:37;410.50;2355.20
55026;DHT22;40925;45.666;18.994;2023-09-30T01:21:05;410.40;2355.20
55026;DHT22;40925;45.666;18.994;2023-09-30T01:23:32;410.40;2355.20
55026;DHT22;40925;45.666;18.994;2023-09-30T01:26:09;410.40;2355.20
55026;DHT22;40925;45.666;18.994;2023-09-30T01:28:35;410.50;2355.20
55026;DHT22;40925;45.666;18.994;2023-09-30T01:31:01;410.40;2355.20
55026;DHT22;40925;45.666;18.994;2023-09-30T01:33:27;410.40;2355.20
55026;DHT22;40925;45.666;18.994;2023-09-30T01:35:54;410.30;2355.20
55026;DHT22;40925;45.666;18.994;2023-09-30T01:38:20;410.20;2355.20
55026;DHT22;40925;45.666;18.994;2023-09-30T01:40:46;410.20;2355.20
55026;DHT22;40925;45.666;18.994;2023-09-30T01:43:20;410.40;2355.20
55026;DHT22;40925;45.666;18.994;2023-09-30T01:45:45;410.20;2355.20
55026;DHT22;40925;45.666;18.994;2023-09-30T01:48:11;410.20;2355.20
55026;DHT22;40925;45.666;18.994;2023-09-30T01:50:40;410.20;2355.20
55026;DHT22;40925;45.666;18.994;2023-09-30T01:53:06;410.20;2355.20
55026;DHT22;40925;45.666;18.994;2023-09-30T01:55:41;410.10;2355.20
55026;DHT22;40925;45.666;18.994;2023-09-30T02:00:36;410.50;2355.20
55026;DHT22;40925;45.666;18.994;2023-09-30T02:03:02;410.20;2355.20
55026;DHT22;40925;45.666;18.994;2023-09-30T02:05:27;410.10;2355.20
55026;DHT22;40925;45.666;18.994;2023-09-30T02:07:53;410.10;2355.20
55026;DHT22;40925;45.666;18.994;2023-09-30T02:10:20;410.10;2355.20
55026;DHT22;40925;45.666;18.994;2023-09-30T02:12:46;409.90;2355.20
55026;DHT22;40925;45.666;18.994;2023-09-30T02:27:25;410.10;2355.20
55026;DHT22;40925;45.666;18.994;2023-09-30T02:29:51;409.80;2355.20
55026;DHT22;40925;45.666;18.994;2023-09-30T02:32:17;409.60;2355.20
55026;DHT22;40925;45.666;18.994;2023-09-30T02:34:43;409.60;2355.20
55026;DHT22;40925;45.666;18.994;2023-09-30T02:37:09;409.60;2355.20
55026;DHT22;40925;45.666;18.994;2023-09-30T02:39:36;409.60;2355.20
55026;DHT22;40925;45.666;18.994;2023-09-30T02:42:02;409.60;2355.20
55026;DHT22;40925;45.666;18.994;2023-09-30T02:44:28;409.70;2355.20
55026;DHT22;40925;45.666;18.994;2023-09-30T02:46:54;409.60;2355.20
55026;DHT22;40925;45.666;18.994;2023-09-30T02:49:21;384.80;2329.60
55026;DHT22;40925;45.666;18.994;2023-09-30T02:51:48;384.50;2329.60
55026;DHT22;40925;45.666;18.994;2023-09-30T02:54:16;384.30;2329.60
55026;DHT22;40925;45.666;18.994;2023-09-30T02:56:42;384.30;2150.40
55026;DHT22;40925;45.666;18.994;2023-09-30T02:59:08;384.10;2329.60
55026;DHT22;40925;45.666;18.994;2023-09-30T03:01:34;384.00;2329.60
55026;DHT22;40925;45.666;18.994;2023-09-30T03:03:59;384.00;2329.60
55026;DHT22;40925;45.666;18.994;2023-09-30T03:06:26;384.10;2329.60
55026;DHT22;40925;45.666;18.994;2023-09-30T03:16:35;384.30;2329.60
55026;DHT22;40925;45.666;18.994;2023-09-30T03:19:06;384.40;2329.60
55026;DHT22;40925;45.666;18.994;2023-09-30T03:21:37;384.40;2329.60
55026;DHT22;40925;45.666;18.994;2023-09-30T03:24:07;384.50;2329.60
55026;DHT22;40925;45.666;18.994;2023-09-30T03:26:34;384.50;2329.60
55026;DHT22;40925;45.666;18.994;2023-09-30T03:29:00;384.50;2329.60
55026;DHT22;40925;45.666;18.994;2023-09-30T03:31:25;384.30;1971.20
55026;DHT22;40925;45.666;18.994;2023-09-30T03:33:52;384.10;2329.60
55026;DHT22;40925;45.666;18.994;2023-09-30T03:36:38;384.00;2329.60
55026;DHT22;40925;45.666;18.994;2023-09-30T03:42:28;384.10;2329.60
55026;DHT22;40925;45.666;18.994;2023-09-30T03:44:55;359.30;2329.60
55026;DHT22;40925;45.666;18.994;2023-09-30T03:52:26;358.90;2329.60
55026;DHT22;40925;45.666;18.994;2023-09-30T03:57:23;358.90;2329.60
55026;DHT22;40925;45.666;18.994;2023-09-30T03:59:49;359.00;2329.60
55026;DHT22;40925;45.666;18.994;2023-09-30T04:02:15;359.10;2329.60
55026;DHT22;40925;45.666;18.994;2023-09-30T04:04:44;359.10;2329.60
55026;DHT22;40925;45.666;18.994;2023-09-30T04:07:09;359.10;2329.60
55026;DHT22;40925;45.666;18.994;2023-09-30T04:09:38;359.10;2329.60
55026;DHT22;40925;45.666;18.994;2023-09-30T04:12:04;359.20;2329.60
55026;DHT22;40925;45.666;18.994;2023-09-30T04:14:29;359.10;2329.60
55026;DHT22;40925;45.666;18.994;2023-09-30T04:16:55;359.10;2329.60
55026;DHT22;40925;45.666;18.994;2023-09-30T04:19:22;359.10;2329.60
55026;DHT22;40925;45.666;18.994;2023-09-30T04:21:47;359.20;2329.60
55026;DHT22;40925;45.666;18.994;2023-09-30T04:24:15;359.30;2329.60
55026;DHT22;40925;45.666;18.994;2023-09-30T04:26:40;359.30;2329.60
55026;DHT22;40925;45.666;18.994;2023-09-30T04:29:06;359.30;2329.60
55026;DHT22;40925;45.666;18.994;2023-09-30T04:31:34;359.30;2329.60
55026;DHT22;40925;45.666;18.994;2023-09-30T04:34:00;384.00;2329.60
55026;DHT22;40925;45.666;18.994;2023-09-30T04:36:26;384.00;2329.60
55026;DHT22;40925;45.666;18.994;2023-09-30T04:38:52;359.30;2329.60
55026;DHT22;40925;45.666;18.994;2023-09-30T04:41:18;384.00;2329.60
55026;DHT22;40925;45.666;18.994;2023-09-30T04:54:27;358.90;2329.60
55026;DHT22;40925;45.666;18.994;2023-09-30T04:56:58;358.90;2329.60
55026;DHT22;40925;45.666;18.994;2023-09-30T04:59:23;359.00;2329.60
55026;DHT22;40925;45.666;18.994;2023-09-30T05:01:50;359.00;2329.60
55026;DHT22;40925;45.666;18.994;2023-09-30T05:04:19;359.00;2329.60
55026;DHT22;40925;45.666;18.994;2023-09-30T05:06:45;358.90;2278.40
55026;DHT22;40925;45.666;18.994;2023-09-30T05:12:48;358.70;2329.60
55026;DHT22;40925;45.666;18.994;2023-09-30T05:15:15;358.90;2329.60
55026;DHT22;40925;45.666;18.994;2023-09-30T05:17:42;359.10;2329.60
55026;DHT22;40925;45.666;18.994;2023-09-30T05:20:10;359.20;2329.60
55026;DHT22;40925;45.666;18.994;2023-09-30T05:25:41;359.30;2329.60
55026;DHT22;40925;45.666;18.994;2023-09-30T05:30:39;359.20;2329.60
55026;DHT22;40925;45.666;18.994;2023-09-30T05:33:07;384.00;2329.60
55026;DHT22;40925;45.666;18.994;2023-09-30T05:35:33;384.10;2329.60
55026;DHT22;40925;45.666;18.994;2023-09-30T05:40:34;384.30;2329.60
55026;DHT22;40925;45.666;18.994;2023-09-30T05:45:28;486.70;2380.80
55026;DHT22;40925;45.666;18.994;2023-09-30T05:50:24;640.10;2432.00
55026;DHT22;40925;45.666;18.994;2023-09-30T05:52:55;666.50;2150.40
55026;DHT22;40925;45.666;18.994;2023-09-30T06:03:02;844.80;1484.80
55026;DHT22;40925;45.666;18.994;2023-09-30T06:05:31;845.40;1433.60
55026;DHT22;40925;45.666;18.994;2023-09-30T06:07:59;870.90;1382.40
55026;DHT22;40925;45.666;18.994;2023-09-30T06:10:41;896.40;1280.00
55026;DHT22;40925;45.666;18.994;2023-09-30T06:13:11;896.80;1254.40
55026;DHT22;40925;45.666;18.994;2023-09-30T06:15:41;896.90;1228.80
55026;DHT22;40925;45.666;18.994;2023-09-30T06:18:08;922.50;1152.00
55026;DHT22;40925;45.666;18.994;2023-09-30T06:20:35;947.50;1152.00
55026;DHT22;40925;45.666;18.994;2023-09-30T06:23:01;972.90;1126.40
55026;DHT22;40925;45.666;18.994;2023-09-30T06:25:27;973.10;1049.60
55026;DHT22;40925;45.666;18.994;2023-09-30T06:27:53;973.20;1049.60
55026;DHT22;40925;45.666;18.994;2023-09-30T06:30:23;973.30;1024.00
55026;DHT22;40925;45.666;18.994;2023-09-30T06:32:58;998.40;1049.60
55026;DHT22;40925;45.666;18.994;2023-09-30T06:35:27;999.10;972.80
55026;DHT22;40925;45.666;18.994;2023-09-30T06:37:55;998.60;998.40
55026;DHT22;40925;45.666;18.994;2023-09-30T06:40:21;999.10;998.40
55026;DHT22;40925;45.666;18.994;2023-09-30T06:45:13;1024.90;921.60
55026;DHT22;40925;45.666;18.994;2023-09-30T06:47:40;1049.70;947.20
55026;DHT22;40925;45.666;18.994;2023-09-30T06:50:13;1050.20;921.60
55026;DHT22;40925;45.666;18.994;2023-09-30T06:52:42;1024.40;947.20
55026;DHT22;40925;45.666;18.994;2023-09-30T06:55:08;1049.80;947.20
55026;DHT22;40925;45.666;18.994;2023-09-30T06:57:35;1050.00;921.60
55026;DHT22;40925;45.666;18.994;2023-09-30T07:00:05;1050.50;947.20
55026;DHT22;40925;45.666;18.994;2023-09-30T07:02:34;1076.10;870.40
55026;DHT22;40925;45.666;18.994;2023-09-30T07:04:59;1076.10;870.40
55026;DHT22;40925;45.666;18.994;2023-09-30T07:07:25;1101.10;870.40
55026;DHT22;40925;45.666;18.994;2023-09-30T07:09:51;1101.00;870.40
55026;DHT22;40925;45.666;18.994;2023-09-30T07:12:17;1101.10;896.00
55026;DHT22;40925;45.666;18.994;2023-09-30T07:14:42;1101.60;870.40
55026;DHT22;40925;45.666;18.994;2023-09-30T07:17:08;1101.50;844.80
55026;DHT22;40925;45.666;18.994;2023-09-30T07:19:34;1075.80;844.80
55026;DHT22;40925;45.666;18.994;2023-09-30T07:22:00;1075.30;870.40
55026;DHT22;40925;45.666;18.994;2023-09-30T07:24:25;1050.10;896.00
55026;DHT22;40925;45.666;18.994;2023-09-30T07:26:52;1050.00;896.00
55026;DHT22;40925;45.666;18.994;2023-09-30T07:29:18;1024.30;921.60
55026;DHT22;40925;45.666;18.994;2023-09-30T07:31:44;1024.00;921.60
55026;DHT22;40925;45.666;18.994;2023-09-30T07:34:10;998.70;921.60
55026;DHT22;40925;45.666;18.994;2023-09-30T07:36:35;973.20;921.60
55026;DHT22;40925;45.666;18.994;2023-09-30T07:39:01;947.50;947.20
55026;DHT22;40925;45.666;18.994;2023-09-30T07:41:27;922.40;998.40
55026;DHT22;40925;45.666;18.994;2023-09-30T07:43:53;921.60;1024.00
55026;DHT22;40925;45.666;18.994;2023-09-30T07:46:18;896.80;1049.60
55026;DHT22;40925;45.666;18.994;2023-09-30T07:48:45;871.30;1100.80
55026;DHT22;40925;45.666;18.994;2023-09-30T07:51:10;870.90;1126.40
55026;DHT22;40925;45.666;18.994;2023-09-30T07:53:39;870.40;1126.40
55026;DHT22;40925;45.666;18.994;2023-09-30T07:56:06;844.80;1203.20
55026;DHT22;40925;45.666;18.994;2023-09-30T07:58:32;819.60;1228.80
55026;DHT22;40925;45.666;18.994;2023-09-30T08:00:58;819.50;1254.40
55026;DHT22;40925;45.666;18.994;2023-09-30T08:03:24;794.40;1356.80
55026;DHT22;40925;45.666;18.994;2023-09-30T08:05:49;794.50;1280.00
55026;DHT22;40925;45.666;18.994;2023-09-30T08:08:16;793.90;1305.60
55026;DHT22;40925;45.666;18.994;2023-09-30T08:10:42;768.80;1331.20
55026;DHT22;40925;45.666;18.994;2023-09-30T08:13:08;768.50;1356.80
55026;DHT22;40925;45.666;18.994;2023-09-30T08:15:35;768.50;1356.80
55026;DHT22;40925;45.666;18.994;2023-09-30T08:18:02;768.40;1331.20
55026;DHT22;40925;45.666;18.994;2023-09-30T08:20:29;743.30;1356.80
55026;DHT22;40925;45.666;18.994;2023-09-30T08:22:56;743.00;1382.40
55026;DHT22;40925;45.666;18.994;2023-09-30T08:25:21;742.80;1382.40
55026;DHT22;40925;45.666;18.994;2023-09-30T08:27:47;742.40;1356.80
55026;DHT22;40925;45.666;18.994;2023-09-30T08:30:15;743.20;1382.40
55026;DHT22;40925;45.666;18.994;2023-09-30T08:32:41;768.00;1280.00
55026;DHT22;40925;45.666;18.994;2023-09-30T08:35:07;768.50;1408.00
55026;DHT22;40925;45.666;18.994;2023-09-30T08:37:33;768.80;1331.20
55026;DHT22;40925;45.666;18.994;2023-09-30T08:39:59;768.60;1331.20
55026;DHT22;40925;45.666;18.994;2023-09-30T08:42:27;768.30;1331.20
55026;DHT22;40925;45.666;18.994;2023-09-30T08:44:58;742.90;1382.40
55026;DHT22;40925;45.666;18.994;2023-09-30T08:47:28;743.30;1382.40
55026;DHT22;40925;45.666;18.994;2023-09-30T08:52:23;743.30;1382.40
55026;DHT22;40925;45.666;18.994;2023-09-30T08:54:50;743.20;1356.80
55026;DHT22;40925;45.666;18.994;2023-09-30T08:57:19;742.90;1408.00
55026;DHT22;40925;45.666;18.994;2023-09-30T08:59:46;742.60;1408.00
55026;DHT22;40925;45.666;18.994;2023-09-30T09:02:14;742.70;1459.20
55026;DHT22;40925;45.666;18.994;2023-09-30T09:04:40;742.70;1408.00
55026;DHT22;40925;45.666;18.994;2023-09-30T09:07:06;742.80;1433.60
55026;DHT22;40925;45.666;18.994;2023-09-30T09:09:32;742.50;1408.00
55026;DHT22;40925;45.666;18.994;2023-09-30T09:11:58;742.90;1408.00
55026;DHT22;40925;45.666;18.994;2023-09-30T09:14:37;743.20;1356.80
55026;DHT22;40925;45.666;18.994;2023-09-30T09:17:06;768.40;1305.60
55026;DHT22;40925;45.666;18.994;2023-09-30T09:19:32;768.60;1280.00
55026;DHT22;40925;45.666;18.994;2023-09-30T09:22:02;768.40;1305.60
55026;DHT22;40925;45.666;18.994;2023-09-30T09:24:35;768.80;1382.40
55026;DHT22;40925;45.666;18.994;2023-09-30T09:27:13;768.40;1459.20
55026;DHT22;40925;45.666;18.994;2023-09-30T09:29:42;768.60;1331.20
55026;DHT22;40925;45.666;18.994;2023-09-30T09:32:16;793.90;1331.20
55026;DHT22;40925;45.666;18.994;2023-09-30T09:34:44;793.90;1280.00
55026;DHT22;40925;45.666;18.994;2023-09-30T09:37:18;768.80;1254.40
55026;DHT22;40925;45.666;18.994;2023-09-30T09:39:54;793.60;1280.00
55026;DHT22;40925;45.666;18.994;2023-09-30T09:44:57;819.70;1228.80
55026;DHT22;40925;45.666;18.994;2023-09-30T09:47:23;820.10;1203.20
55026;DHT22;40925;45.666;18.994;2023-09-30T09:49:53;819.20;1177.60
55026;DHT22;40925;45.666;18.994;2023-09-30T09:52:20;793.90;1203.20
55026;DHT22;40925;45.666;18.994;2023-09-30T09:54:46;768.90;1228.80
55026;DHT22;40925;45.666;18.994;2023-09-30T09:57:14;768.50;1280.00
55026;DHT22;40925;45.666;18.994;2023-09-30T09:59:40;768.20;1305.60
55026;DHT22;40925;45.666;18.994;2023-09-30T10:02:10;768.70;1280.00
55026;DHT22;40925;45.666;18.994;2023-09-30T10:04:38;794.10;1305.60
55026;DHT22;40925;45.666;18.994;2023-09-30T10:07:04;794.40;1254.40
55026;DHT22;40925;45.666;18.994;2023-09-30T10:09:32;819.20;1280.00
55026;DHT22;40925;45.666;18.994;2023-09-30T10:14:33;845.10;1203.20
55026;DHT22;40925;45.666;18.994;2023-09-30T10:16:59;845.10;1203.20
55026;DHT22;40925;45.666;18.994;2023-09-30T10:19:25;844.90;1203.20
55026;DHT22;40925;45.666;18.994;2023-09-30T10:24:59;820.10;1203.20
55026;DHT22;40925;45.666;18.994;2023-09-30T10:40:53;819.70;1203.20
55026;DHT22;40925;45.666;18.994;2023-09-30T10:43:38;794.30;1228.80
55026;DHT22;40925;45.666;18.994;2023-09-30T10:48:52;794.40;1254.40
55026;DHT22;40925;45.666;18.994;2023-09-30T10:51:19;819.50;1228.80
55026;DHT22;40925;45.666;18.994;2023-09-30T10:53:54;819.90;1203.20
55026;DHT22;40925;45.666;18.994;2023-09-30T10:56:32;819.40;1177.60
55026;DHT22;40925;45.666;18.994;2023-09-30T10:59:00;819.30;1177.60
55026;DHT22;40925;45.666;18.994;2023-09-30T11:01:32;819.20;1228.80
55026;DHT22;40925;45.666;18.994;2023-09-30T11:04:00;794.50;1254.40
55026;DHT22;40925;45.666;18.994;2023-09-30T11:06:30;819.70;1203.20
55026;DHT22;40925;45.666;18.994;2023-09-30T11:09:16;820.10;1152.00
55026;DHT22;40925;45.666;18.994;2023-09-30T11:11:49;819.50;1177.60
55026;DHT22;40925;45.666;18.994;2023-09-30T11:14:26;794.00;1203.20
55026;DHT22;40925;45.666;18.994;2023-09-30T11:17:12;793.90;1254.40
55026;DHT22;40925;45.666;18.994;2023-09-30T11:19:46;793.90;1254.40
55026;DHT22;40925;45.666;18.994;2023-09-30T11:22:13;794.40;1203.20
55026;DHT22;40925;45.666;18.994;2023-09-30T11:24:40;794.50;1203.20
55026;DHT22;40925;45.666;18.994;2023-09-30T11:31:59;819.60;1177.60
55026;DHT22;40925;45.666;18.994;2023-09-30T11:34:34;819.90;1177.60
55026;DHT22;40925;45.666;18.994;2023-09-30T11:37:00;820.00;1152.00
55026;DHT22;40925;45.666;18.994;2023-09-30T11:39:28;820.10;1100.80
55026;DHT22;40925;45.666;18.994;2023-09-30T11:41:54;820.00;1075.20
55026;DHT22;40925;45.666;18.994;2023-09-30T11:44:24;820.00;1100.80
55026;DHT22;40925;45.666;18.994;2023-09-30T11:47:02;844.90;1126.40
55026;DHT22;40925;45.666;18.994;2023-09-30T11:49:38;819.90;1100.80
55026;DHT22;40925;45.666;18.994;2023-09-30T11:52:12;844.90;1126.40
55026;DHT22;40925;45.666;18.994;2023-09-30T11:57:10;845.50;1075.20
55026;DHT22;40925;45.666;18.994;2023-09-30T11:59:37;845.20;1049.60
55026;DHT22;40925;45.666;18.994;2023-09-30T12:02:11;819.90;1075.20
55026;DHT22;40925;45.666;18.994;2023-09-30T12:04:37;819.60;1075.20
55026;DHT22;40925;45.666;18.994;2023-09-30T12:07:05;794.40;1100.80
55026;DHT22;40925;45.666;18.994;2023-09-30T12:12:03;819.80;1075.20
55026;DHT22;40925;45.666;18.994;2023-09-30T12:14:29;819.50;1100.80
55026;DHT22;40925;45.666;18.994;2023-09-30T12:16:58;819.70;1075.20
55026;DHT22;40925;45.666;18.994;2023-09-30T12:19:23;820.00;1075.20
55026;DHT22;40925;45.666;18.994;2023-09-30T12:21:51;819.70;1075.20
55026;DHT22;40925;45.666;18.994;2023-09-30T12:24:19;819.60;1075.20
55026;DHT22;40925;45.666;18.994;2023-09-30T12:26:48;819.20;1126.40
55026;DHT22;40925;45.666;18.994;2023-09-30T12:29:17;819.60;1126.40
55026;DHT22;40925;45.666;18.994;2023-09-30T12:31:46;820.00;1126.40
55026;DHT22;40925;45.666;18.994;2023-09-30T12:34:13;844.90;1100.80
55026;DHT22;40925;45.666;18.994;2023-09-30T12:36:40;844.90;1126.40
55026;DHT22;40925;45.666;18.994;2023-09-30T12:39:08;845.10;1100.80
55026;DHT22;40925;45.666;18.994;2023-09-30T12:41:44;845.10;1100.80
55026;DHT22;40925;45.666;18.994;2023-09-30T12:44:10;820.00;1075.20
55026;DHT22;40925;45.666;18.994;2023-09-30T12:46:36;819.90;1075.20
55026;DHT22;40925;45.666;18.994;2023-09-30T12:49:09;819.90;1100.80
55026;DHT22;40925;45.666;18.994;2023-09-30T12:51:35;820.00;1075.20
55026;DHT22;40925;45.666;18.994;2023-09-30T12:54:02;819.90;1100.80
55026;DHT22;40925;45.666;18.994;2023-09-30T12:56:29;819.70;1100.80
55026;DHT22;40925;45.666;18.994;2023-09-30T12:58:55;820.00;1075.20
55026;DHT22;40925;45.666;18.994;2023-09-30T13:01:21;820.00;1075.20
55026;DHT22;40925;45.666;18.994;2023-09-30T13:03:48;820.10;1075.20
55026;DHT22;40925;45.666;18.994;2023-09-30T13:06:14;820.00;1100.80
55026;DHT22;40925;45.666;18.994;2023-09-30T13:08:44;844.80;1126.40
55026;DHT22;40925;45.666;18.994;2023-09-30T13:11:10;819.70;1075.20
55026;DHT22;40925;45.666;18.994;2023-09-30T13:13:37;819.70;1100.80
55026;DHT22;40925;45.666;18.994;2023-09-30T13:16:03;819.50;1126.40
55026;DHT22;40925;45.666;18.994;2023-09-30T13:18:36;794.50;1126.40
55026;DHT22;40925;45.666;18.994;2023-09-30T13:21:03;819.20;1126.40
55026;DHT22;40925;45.666;18.994;2023-09-30T13:23:31;794.10;1152.00
55026;DHT22;40925;45.666;18.994;2023-09-30T13:25:57;794.10;1177.60
55026;DHT22;40925;45.666;18.994;2023-09-30T13:28:23;819.30;1177.60
55026;DHT22;40925;45.666;18.994;2023-09-30T13:30:48;819.40;1126.40
55026;DHT22;40925;45.666;18.994;2023-09-30T13:33:15;794.40;1126.40
55026;DHT22;40925;45.666;18.994;2023-09-30T13:35:45;794.40;1126.40
55026;DHT22;40925;45.666;18.994;2023-09-30T13:38:11;794.40;1126.40
55026;DHT22;40925;45.666;18.994;2023-09-30T13:40:37;794.40;1126.40
55026;DHT22;40925;45.666;18.994;2023-09-30T13:43:04;819.30;1126.40
55026;DHT22;40925;45.666;18.994;2023-09-30T13:45:30;794.40;1126.40
55026;DHT22;40925;45.666;18.994;2023-09-30T13:47:57;794.30;1152.00
55026;DHT22;40925;45.666;18.994;2023-09-30T13:50:23;794.10;1152.00
55026;DHT22;40925;45.666;18.994;2023-09-30T13:52:49;793.90;1177.60
55026;DHT22;40925;45.666;18.994;2023-09-30T13:55:14;794.00;1152.00
55026;DHT22;40925;45.666;18.994;2023-09-30T13:57:48;794.10;1152.00
55026;DHT22;40925;45.666;18.994;2023-09-30T14:00:14;794.10;1177.60
55026;DHT22;40925;45.666;18.994;2023-09-30T14:02:42;768.90;1203.20
55026;DHT22;40925;45.666;18.994;2023-09-30T14:05:08;768.30;1203.20
55026;DHT22;40925;45.666;18.994;2023-09-30T14:07:35;743.30;1254.40
55026;DHT22;40925;45.666;18.994;2023-09-30T14:10:21;742.90;1305.60
55026;DHT22;40925;45.666;18.994;2023-09-30T14:12:49;742.80;1331.20
55026;DHT22;40925;45.666;18.994;2023-09-30T14:15:16;742.50;1356.80
55026;DHT22;40925;45.666;18.994;2023-09-30T14:17:42;742.40;1382.40
55026;DHT22;40925;45.666;18.994;2023-09-30T14:20:08;717.70;1382.40
55026;DHT22;40925;45.666;18.994;2023-09-30T14:22:34;717.50;1408.00
55026;DHT22;40925;45.666;18.994;2023-09-30T14:29:52;717.00;1510.40
55026;DHT22;40925;45.666;18.994;2023-09-30T14:32:18;692.00;1561.60
55026;DHT22;40925;45.666;18.994;2023-09-30T14:37:10;691.80;1561.60
55026;DHT22;40925;45.666;18.994;2023-09-30T14:39:36;691.60;1587.20
55026;DHT22;40925;45.666;18.994;2023-09-30T14:42:02;691.50;1612.80
55026;DHT22;40925;45.666;18.994;2023-09-30T14:51:49;691.60;1817.60
55026;DHT22;40925;45.666;18.994;2023-09-30T14:54:14;691.30;1843.20
55026;DHT22;40925;45.666;18.994;2023-09-30T14:59:06;691.30;1664.00
